This is the latest recevied weather packets stored in our database for station/object HJ3DAG-13. If no packets are shown the sender has not sent any weather packets the latest 10 day(s).
| Time | Temp. | Humidity | Pressure | Rain* | Wind** | Luminosity | Snow |
|---|---|---|---|---|---|---|---|
| 1777558846 | 13.89° C | 87% | 1016 hPa | 0 mm | - | - | - |
| 1777558757 | 14.44° C | 84% | 1016 hPa | 0 mm | - | - | - |
| 1777558246 | 15° C | 79% | 1016 hPa | 0 mm | - | - | - |
| 1777558157 | 14.44° C | 82% | 1016 hPa | 0 mm | - | - | - |
| 1777557646 | 13.89° C | 88% | 1016 hPa | 0 mm | - | - | - |
| 1777557557 | 13.89° C | 88% | 1016 hPa | 0 mm | - | - | - |
| 1777557046 | 13.89° C | 88% | 1016 hPa | 0 mm | - | - | - |
| 1777556957 | 13.89° C | 88% | 1016 hPa | 0 mm | - | - | - |
| 1777556446 | 13.33° C | 92% | 1016 hPa | 0 mm | - | - | - |
| 1777555846 | 12.78° C | 92% | 1016 hPa | 0 mm | - | - | - |
| 1777555757 | 12.78° C | 93% | 1017 hPa | 0 mm | - | - | - |
| 1777555246 | 12.78° C | 93% | 1017 hPa | 0 mm | - | - | - |
| 1777555157 | 12.78° C | 93% | 1017 hPa | 0 mm | - | - | - |
| 1777554646 | 12.78° C | 93% | 1017 hPa | 0 mm | - | - | - |
| 1777554557 | 12.78° C | 93% | 1017 hPa | 0 mm | - | - | - |
| 1777554046 | 12.22° C | 94% | 1017 hPa | 0 mm | - | - | - |
| 1777553446 | 12.22° C | 94% | 1017 hPa | 0 mm | - | - | - |
| 1777553357 | 11.67° C | 95% | 1017 hPa | 0 mm | - | - | - |
| 1777552846 | 11.11° C | 97% | 1017 hPa | 0 mm | - | - | - |
| 1777552757 | 11.11° C | 97% | 1017 hPa | 0 mm | - | - | - |
| 1777552246 | 11.11° C | 97% | 1017 hPa | 0 mm | - | - | - |
| 1777551646 | 11.11° C | 97% | 1017 hPa | 0 mm | - | - | - |
| 1777551557 | 11.11° C | 97% | 1017 hPa | 0 mm | - | - | - |
| 1777551046 | 11.11° C | 97% | 1017 hPa | 0 mm | - | - | - |
| 1777550957 | 11.11° C | 97% | 1017 hPa | 0 mm | - | - | - |
* Rain latest hour (hover to see other rain measurements)
** Current wind speed in m/s (hover to see current wind gust speed)